Milan, MI (48160)

8:10 PM EDT on October 22, 2014 (GMT -0400)
Covington Drive | Change Station
CLOSE
Current Station
Personal Weather Station
Location: Saline, MI
Elevation: 810 ft
Nearby Weather Stations

Elev 810 ft 42.15 °N, 83.74 °W | Updated 29 seconds ago

Clear
Clear
46.8 °F
Feels Like 47 °F
N
0.0
Wind Variable Wind from NW
Gusts 0.0 mph

Today
High -- | Low -- °F
--% Chance of Precip.
Yesterday
High -- | Low -- °F
Precip. -- in
7:55 AM 6:42 PM
Waning Crescent, 1% visible
Pressure 30.30 in
Visibility -9999.0 miles
Clouds Clear
Windchill 47 °F
Dew Point 39 °F
Humidity 73%
Rainfall 0.00 in
Snow Depth Not available.
UV 0 out of 12
Pollen .60 out of 12
PM2.5 Good
Flu Activity Sporadic
METAR KARB 222353Z AUTO 36007KT CLR 08/03 A3028 RMK AO2 SLP259 T00830033 10144 20083 55000 $

More Conditions Fewer Conditions

Pressure 30.30 in
Visibility -9999.0 miles
Clouds Clear
Windchill 47 °F
Dew Point 39 °F
Humidity 73%
Rainfall 0.00 in
Snow Depth Not available.
UV 0 out of 12
Pollen .60 out of 12
PM2.5 Good
Flu Activity Sporadic
METAR KARB 222353Z AUTO 36007KT CLR 08/03 A3028 RMK AO2 SLP259 T00830033 10144 20083 55000 $

More Conditions Fewer Conditions

10-Day Weather Forecast

Almanac

Astronomy

Oct. 22, 2014 Rise Set
Actual Time 7:55 AM EDT 6:42 PM EDT
Civil Twilight 7:26 AM EDT 7:10 PM EDT
Nautical Twilight 6:54 AM EDT 7:43 PM EDT
Astronomical Twilight 6:21 AM EDT 8:15 PM EDT
Moon 6:34 AM EDT (10/22) 6:09 PM EDT (10/22)
Length of Visible Light 11h 43m
Length of Day
10h 46m
Tomorrow will be 2m 39s shorter.
Waning Crescent, 1% of the Moon is Illuminated
Today
Waning Crescent
Oct 23
New
Oct 30
First Quarter
Nov 6
Full
Nov 14
Last Quarter

Today's Extremes

State Highs State Lows

Community

WunderPhotos

Upload Photos

1,764,089 photos uploaded!

WunderBlogs® & News

Nearby

Air Quality

  Air Quality AQ Index Pollutant
Yesterday Good
PM2.5
Current Good
PM2.5
Wednesday Good
PM2.5
Thursday Good
PM2.5
Friday Moderate
PM2.5
Saturday Good
PM2.5
Sunday Good
PM2.5
Monday Moderate
PM2.5

Snow Depth

Station Depth Elevation
No new snow has been reported.

Earthquake Activity

City Distance Mag. Time & Date
No recent earthquake activity has been reported nearby.
Minimum magnitude displayed is 2.5.

Coastal Water Temperatures

Place Temperature
Marblehead, OH 52.0 °F

Nearby Weather Stations